Terminal Aerodrome Forecast
Issued by NWS

Home | Current Version | Previous Version | Text Only | Print | Product List | Glossary On
Versions: 1 2 3 4 5 6 7 8 9 10 11 12 13 14 15 16 17 18 19 20 21 22 23 24 25 26 27
000
FTUS46 KSEW 270800 AAA
TAFSEA
TAF AMD
KSEA 270851Z 2709/2812 02007KT P6SM FEW250
     FM271200 15004KT P6SM BKN015 BKN200
     FM271700 19006KT P6SM SCT025 BKN120 BKN200
     FM272100 22010KT P6SM BKN030 BKN070 OVC120
     FM280000 22010KT P6SM OVC030
     FM280600 20012KT P6SM -RA SCT015 OVC025=

USA.gov is the U.S. government's official web portal to all federal, state and local government web resources and services.